createdAt,value
2023-05-21T00:01:20.273Z,8.40
2023-05-21T00:04:08.005Z,8.57
2023-05-21T00:06:54.609Z,8.43
2023-05-21T00:09:41.454Z,8.57
2023-05-21T00:12:28.122Z,8.73
2023-05-21T00:15:14.970Z,8.47
2023-05-21T00:18:03.803Z,8.67
2023-05-21T00:20:50.576Z,8.13
2023-05-21T00:23:37.809Z,9.07
2023-05-21T00:26:25.202Z,9.17
2023-05-21T00:29:16.615Z,8.73
2023-05-21T00:32:03.430Z,8.53
2023-05-21T00:34:51.540Z,9.10
2023-05-21T00:37:38.960Z,9.00
2023-05-21T00:40:25.879Z,9.53
2023-05-21T00:43:14.405Z,8.27
2023-05-21T00:46:00.886Z,8.30
2023-05-21T00:48:49.218Z,8.93
2023-05-21T00:51:37.780Z,8.90
2023-05-21T00:54:25.214Z,8.73
2023-05-21T00:57:12.270Z,9.30
2023-05-21T00:59:58.787Z,10.57
2023-05-21T01:02:45.786Z,9.50
2023-05-21T01:05:32.965Z,10.13
2023-05-21T01:08:22.151Z,10.10
2023-05-21T01:11:12.002Z,9.50
2023-05-21T01:13:58.901Z,10.67
2023-05-21T01:16:48.390Z,9.13
2023-05-21T01:19:35.681Z,9.20
2023-05-21T01:22:25.132Z,10.50
2023-05-21T01:25:13.444Z,9.77
2023-05-21T01:28:00.286Z,8.60
2023-05-21T01:30:48.248Z,9.17
2023-05-21T01:33:40.043Z,9.27
2023-05-21T01:36:32.901Z,8.47
2023-05-21T01:39:24.858Z,9.63
2023-05-21T01:42:16.089Z,9.70
2023-05-21T01:45:06.365Z,10.00
2023-05-21T01:47:55.861Z,9.97
2023-05-21T01:50:44.856Z,9.93
2023-05-21T01:53:32.167Z,9.47
2023-05-21T01:56:18.812Z,9.57
2023-05-21T01:59:07.170Z,9.30
2023-05-21T02:01:53.898Z,9.77
2023-05-21T02:04:41.414Z,9.70
2023-05-21T02:07:29.058Z,9.27
2023-05-21T02:10:15.980Z,9.80
2023-05-21T02:13:02.435Z,9.50
2023-05-21T02:15:51.781Z,10.10
2023-05-21T02:18:38.847Z,8.93
2023-05-21T02:21:25.577Z,9.60
2023-05-21T02:24:12.368Z,9.43
2023-05-21T02:26:59.743Z,10.17
2023-05-21T02:29:46.680Z,10.03
2023-05-21T02:32:35.200Z,10.23
2023-05-21T02:35:22.087Z,10.80
2023-05-21T02:38:09.304Z,9.97
2023-05-21T02:40:56.068Z,10.50
2023-05-21T02:43:43.820Z,10.30
2023-05-21T02:46:30.710Z,11.00
2023-05-21T02:49:19.435Z,11.13
2023-05-21T02:52:08.124Z,11.73
2023-05-21T02:54:54.922Z,10.13
2023-05-21T02:57:41.781Z,11.30
2023-05-21T03:00:28.577Z,11.00
2023-05-21T03:03:15.446Z,13.40
2023-05-21T03:06:03.536Z,11.33
2023-05-21T03:08:50.537Z,12.43
2023-05-21T03:11:37.027Z,11.67
2023-05-21T03:14:24.751Z,12.70
2023-05-21T03:17:14.163Z,10.90
2023-05-21T03:20:01.067Z,11.17
2023-05-21T03:22:49.996Z,11.37
2023-05-21T03:28:23.508Z,11.23
2023-05-21T03:31:10.247Z,11.47
2023-05-21T03:34:34.586Z,11.97
2023-05-21T03:37:22.530Z,12.07
2023-05-21T03:40:12.973Z,11.47
2023-05-21T03:42:59.451Z,12.20
2023-05-21T03:45:47.162Z,11.70
2023-05-21T03:48:52.822Z,12.03
2023-05-21T03:51:42.607Z,11.73
2023-05-21T03:54:32.844Z,12.40
2023-05-21T03:57:25.119Z,12.30
2023-05-21T04:00:12.633Z,10.90
2023-05-21T04:03:07.190Z,11.50
2023-05-21T04:05:54.321Z,12.10
2023-05-21T04:08:40.870Z,11.27
2023-05-21T04:11:28.589Z,11.57
2023-05-21T04:14:16.777Z,15.50
2023-05-21T04:17:05.391Z,12.23
2023-05-21T04:19:52.550Z,11.67
2023-05-21T04:22:39.335Z,10.47
2023-05-21T04:25:26.526Z,11.43
2023-05-21T04:28:13.025Z,11.60
2023-05-21T04:31:01.559Z,10.87
2023-05-21T04:33:48.660Z,11.90
2023-05-21T04:36:35.307Z,12.30
2023-05-21T04:39:21.939Z,11.77
2023-05-21T04:42:11.170Z,12.93
2023-05-21T04:44:59.619Z,14.00
2023-05-21T04:47:48.768Z,13.77
2023-05-21T04:50:35.589Z,13.03
2023-05-21T04:53:22.320Z,13.37
2023-05-21T04:56:09.930Z,12.73
2023-05-21T04:58:58.858Z,13.47
2023-05-21T05:01:45.492Z,13.50
2023-05-21T05:04:34.136Z,13.63
2023-05-21T05:07:21.179Z,12.87
2023-05-21T05:10:09.083Z,12.97
2023-05-21T05:12:56.089Z,12.80
2023-05-21T05:15:43.084Z,12.53
2023-05-21T05:18:31.081Z,11.93
2023-05-21T05:21:19.605Z,12.73
2023-05-21T05:24:06.899Z,12.20
2023-05-21T05:26:53.443Z,12.10
2023-05-21T05:29:40.195Z,13.57
2023-05-21T05:32:26.976Z,12.10
2023-05-21T05:35:15.336Z,12.63
2023-05-21T05:38:03.579Z,12.97
2023-05-21T05:40:50.230Z,13.83
2023-05-21T05:43:36.961Z,14.00
2023-05-21T05:46:23.855Z,12.90
2023-05-21T05:49:11.625Z,12.93
2023-05-21T05:51:59.380Z,12.93
2023-05-21T05:54:47.646Z,13.03
2023-05-21T05:57:34.510Z,12.93
2023-05-21T06:00:26.991Z,13.03
2023-05-21T06:03:13.664Z,12.00
2023-05-21T06:06:02.502Z,13.10
2023-05-21T06:08:50.354Z,11.20
2023-05-21T06:11:40.208Z,13.23
2023-05-21T06:14:27.016Z,14.10
2023-05-21T06:17:14.142Z,12.70
2023-05-21T06:20:01.744Z,13.00
2023-05-21T06:22:48.421Z,13.17
2023-05-21T06:25:36.045Z,12.27
2023-05-21T06:28:24.358Z,11.53
2023-05-21T06:31:13.763Z,12.50
2023-05-21T06:34:02.321Z,11.33
2023-05-21T06:36:49.442Z,11.60
2023-05-21T06:39:37.285Z,10.43
2023-05-21T06:42:25.175Z,10.87
2023-05-21T06:45:23.538Z,10.73
2023-05-21T06:48:13.696Z,11.53
2023-05-21T06:51:00.808Z,10.37
2023-05-21T06:53:48.170Z,10.23
2023-05-21T06:56:34.591Z,10.33
2023-05-21T06:59:21.395Z,9.53
2023-05-21T07:02:09.640Z,9.60
2023-05-21T07:04:56.975Z,9.97
2023-05-21T07:07:43.917Z,9.57
2023-05-21T07:10:30.807Z,10.30
2023-05-21T07:13:17.801Z,10.27
2023-05-21T07:16:05.022Z,9.80
2023-05-21T07:18:53.533Z,9.57
2023-05-21T07:21:40.259Z,10.13
2023-05-21T07:24:28.166Z,10.47
2023-05-21T07:27:25.196Z,9.83
2023-05-21T07:30:15.513Z,10.13
2023-05-21T07:33:02.608Z,9.30
2023-05-21T07:35:51.500Z,9.37
2023-05-21T07:38:40.287Z,9.33
2023-05-21T07:41:28.846Z,9.90
2023-05-21T07:44:15.619Z,8.90
2023-05-21T07:47:05.828Z,8.50
2023-05-21T07:49:53.745Z,9.17
2023-05-21T07:52:41.926Z,9.40
2023-05-21T07:55:28.697Z,10.23
2023-05-21T07:58:16.536Z,8.67
2023-05-21T08:01:03.472Z,8.90
2023-05-21T08:03:51.522Z,8.17
2023-05-21T08:06:39.051Z,8.90
2023-05-21T08:09:27.293Z,8.67
2023-05-21T08:12:16.179Z,8.20
2023-05-21T08:15:04.052Z,8.17
2023-05-21T08:17:52.881Z,8.43
2023-05-21T08:20:39.724Z,7.73
2023-05-21T08:23:27.783Z,7.80
2023-05-21T08:26:18.396Z,8.37
2023-05-21T08:29:04.821Z,8.10
2023-05-21T08:31:51.659Z,8.07
2023-05-21T08:34:38.449Z,7.93
2023-05-21T08:37:55.077Z,7.00
2023-05-21T08:40:52.558Z,7.60
2023-05-21T08:43:40.904Z,7.70
2023-05-21T08:46:33.432Z,8.20
2023-05-21T08:49:28.593Z,7.17
2023-05-21T08:52:18.875Z,7.53
2023-05-21T08:55:24.251Z,7.40
2023-05-21T09:01:32.366Z,7.27
2023-05-21T09:04:59.484Z,7.47
2023-05-21T09:07:59.953Z,8.53
2023-05-21T09:10:59.614Z,6.67
2023-05-21T09:13:55.264Z,6.37
2023-05-21T09:17:23.127Z,7.40
2023-05-21T09:20:31.421Z,7.20
2023-05-21T09:23:24.655Z,6.43
2023-05-21T09:26:14.560Z,7.47
2023-05-21T09:29:02.816Z,6.63
2023-05-21T09:31:52.080Z,6.67
2023-05-21T09:34:41.663Z,6.30
2023-05-21T09:37:29.651Z,7.10
2023-05-21T09:40:18.879Z,6.77
2023-05-21T09:43:07.080Z,6.73
2023-05-21T09:45:57.765Z,7.17
2023-05-21T09:48:49.953Z,6.40
2023-05-21T09:51:41.456Z,6.47
2023-05-21T09:54:34.110Z,6.60
2023-05-21T09:57:26.374Z,6.47
2023-05-21T10:00:20.513Z,6.50
2023-05-21T10:03:13.449Z,7.27
2023-05-21T10:06:02.303Z,6.77
2023-05-21T10:08:55.582Z,6.43
2023-05-21T10:11:47.198Z,6.07
2023-05-21T10:14:36.319Z,6.77
2023-05-21T10:17:25.045Z,6.60
2023-05-21T10:20:13.344Z,5.77
2023-05-21T10:23:01.509Z,6.93
2023-05-21T10:25:51.290Z,6.50
2023-05-21T10:28:39.259Z,7.47
2023-05-21T10:31:28.101Z,6.80
2023-05-21T10:34:16.319Z,6.60
2023-05-21T10:37:06.024Z,7.23
2023-05-21T10:39:54.404Z,6.30
2023-05-21T10:43:12.717Z,7.03
2023-05-21T10:46:17.745Z,6.30
2023-05-21T10:49:32.267Z,6.60
2023-05-21T10:52:35.148Z,6.33
2023-05-21T10:55:37.122Z,7.00
2023-05-21T10:58:59.428Z,6.37
2023-05-21T11:01:47.573Z,5.77
2023-05-21T11:04:35.041Z,6.20
2023-05-21T11:07:24.728Z,6.70
2023-05-21T11:10:37.421Z,6.23
2023-05-21T11:13:24.757Z,6.13
2023-05-21T11:16:18.144Z,5.70
2023-05-21T11:19:04.878Z,6.07
2023-05-21T11:21:52.434Z,6.13
2023-05-21T11:24:41.780Z,5.67
2023-05-21T11:27:33.732Z,6.00
2023-05-21T11:30:20.745Z,5.73
2023-05-21T11:33:21.172Z,6.10
2023-05-21T11:36:13.255Z,6.20
2023-05-21T11:39:10.605Z,5.90
2023-05-21T11:42:01.598Z,5.30
2023-05-21T11:44:50.332Z,5.60
2023-05-21T11:47:37.591Z,5.63
2023-05-21T11:50:26.513Z,5.03
2023-05-21T11:53:13.470Z,5.30
2023-05-21T11:56:02.922Z,5.17
2023-05-21T11:58:49.719Z,5.77
2023-05-21T12:01:36.353Z,5.30
2023-05-21T12:04:23.550Z,4.87
2023-05-21T12:07:13.355Z,5.37
2023-05-21T12:10:01.490Z,5.40
2023-05-21T12:12:55.834Z,5.13
2023-05-21T12:15:43.470Z,5.20
2023-05-21T12:18:30.420Z,4.73
2023-05-21T12:21:17.037Z,4.43
2023-05-21T12:24:05.540Z,5.00
2023-05-21T12:26:52.691Z,5.07
2023-05-21T12:29:40.211Z,4.60
2023-05-21T12:32:28.760Z,4.80
2023-05-21T12:35:22.880Z,5.20
2023-05-21T12:38:10.230Z,4.70
2023-05-21T12:41:04.137Z,4.90
2023-05-21T12:43:51.496Z,4.40
2023-05-21T12:46:38.201Z,4.83
2023-05-21T12:49:35.751Z,4.20
2023-05-21T12:52:22.717Z,19.93
2023-05-21T12:55:12.022Z,4.90
2023-05-21T12:58:08.438Z,4.80
2023-05-21T13:00:56.633Z,4.97
2023-05-21T13:03:44.264Z,4.30
2023-05-21T13:06:31.577Z,4.60
2023-05-21T13:09:18.165Z,4.73
2023-05-21T13:12:05.174Z,4.77
2023-05-21T13:14:54.489Z,4.70
2023-05-21T13:17:41.083Z,4.70
2023-05-21T13:20:28.130Z,4.70
2023-05-21T13:23:15.936Z,5.03
2023-05-21T13:26:05.147Z,4.57
2023-05-21T13:28:52.088Z,4.40
2023-05-21T13:31:40.593Z,4.20
2023-05-21T13:34:27.200Z,5.33
2023-05-21T13:37:14.117Z,4.57
2023-05-21T13:40:00.977Z,3.87
2023-05-21T13:42:49.626Z,4.40
2023-05-21T13:45:36.260Z,4.67
2023-05-21T13:48:24.700Z,4.00
2023-05-21T13:51:11.686Z,4.47
2023-05-21T13:54:00.759Z,4.30
2023-05-21T13:56:47.481Z,4.10
2023-05-21T13:59:34.242Z,3.80
2023-05-21T14:02:21.042Z,4.40
2023-05-21T14:05:10.209Z,4.00
2023-05-21T14:07:56.995Z,4.10
2023-05-21T14:10:43.755Z,4.17
2023-05-21T14:13:30.697Z,4.03
2023-05-21T14:16:18.353Z,4.10
2023-05-21T14:19:04.888Z,4.10
2023-05-21T14:21:54.148Z,4.17
2023-05-21T14:24:40.988Z,4.07
2023-05-21T14:27:27.720Z,4.07
2023-05-21T14:30:14.539Z,4.27
2023-05-21T14:33:01.419Z,4.20
2023-05-21T14:35:48.130Z,4.00
2023-05-21T14:38:36.216Z,4.00
2023-05-21T14:41:26.544Z,3.90
2023-05-21T14:44:13.142Z,4.27
2023-05-21T14:46:59.855Z,3.70
2023-05-21T14:49:46.739Z,4.03
2023-05-21T14:52:33.561Z,4.00
2023-05-21T14:55:24.764Z,3.90
2023-05-21T14:58:16.441Z,4.07
2023-05-21T15:01:04.279Z,4.10
2023-05-21T15:03:51.601Z,4.50
2023-05-21T15:06:41.322Z,3.80
2023-05-21T15:09:28.521Z,3.60
2023-05-21T15:12:18.564Z,3.87
2023-05-21T15:15:06.034Z,3.87
2023-05-21T15:17:52.714Z,3.67
2023-05-21T15:20:39.254Z,3.70
2023-05-21T15:23:26.339Z,4.40
2023-05-21T15:26:12.784Z,4.27
2023-05-21T15:29:01.085Z,4.40
2023-05-21T15:31:50.557Z,3.37
2023-05-21T15:34:40.083Z,3.70
2023-05-21T15:37:27.724Z,4.13
2023-05-21T15:40:16.870Z,4.33
2023-05-21T15:43:03.924Z,3.50
2023-05-21T15:45:52.204Z,4.10
2023-05-21T15:48:38.807Z,3.80
2023-05-21T15:51:26.320Z,3.97
2023-05-21T15:54:13.531Z,3.77
2023-05-21T15:56:59.922Z,4.70
2023-05-21T15:59:46.624Z,3.80
2023-05-21T16:02:34.913Z,3.87
2023-05-21T16:05:22.273Z,3.87
2023-05-21T16:08:10.829Z,4.00
2023-05-21T16:10:58.367Z,3.87
2023-05-21T16:13:45.289Z,3.63
2023-05-21T16:16:32.147Z,4.50
2023-05-21T16:19:20.204Z,3.67
2023-05-21T16:24:55.804Z,3.70
2023-05-21T16:27:42.257Z,3.80
2023-05-21T16:30:28.994Z,3.70
2023-05-21T16:33:16.615Z,3.53
2023-05-21T16:36:04.552Z,3.43
2023-05-21T16:38:51.281Z,3.43
2023-05-21T16:41:38.075Z,3.80
2023-05-21T16:44:24.872Z,4.23
2023-05-21T16:47:11.568Z,3.87
2023-05-21T16:49:58.766Z,3.67
2023-05-21T16:52:46.811Z,4.30
2023-05-21T16:55:34.232Z,3.80
2023-05-21T16:58:21.043Z,3.50
2023-05-21T17:01:08.005Z,3.73
2023-05-21T17:03:56.142Z,3.90
2023-05-21T17:06:42.850Z,4.17
2023-05-21T17:09:31.236Z,3.47
2023-05-21T17:12:17.858Z,4.10
2023-05-21T17:15:05.302Z,3.77
2023-05-21T17:17:51.905Z,3.90
2023-05-21T17:20:38.811Z,4.30
2023-05-21T17:23:25.646Z,5.03
2023-05-21T17:26:14.100Z,4.03
2023-05-21T17:29:01.332Z,3.60
2023-05-21T17:31:47.944Z,3.87
2023-05-21T17:34:34.570Z,3.47
2023-05-21T17:37:21.330Z,5.03
2023-05-21T17:40:09.601Z,3.50
2023-05-21T17:42:57.665Z,4.30
2023-05-21T17:45:51.858Z,3.97
2023-05-21T17:48:39.803Z,4.97
2023-05-21T17:51:26.707Z,3.97
2023-05-21T17:54:15.670Z,4.03
2023-05-21T17:57:03.903Z,4.23
2023-05-21T17:59:51.979Z,3.90
2023-05-21T18:02:38.741Z,4.23
2023-05-21T18:05:25.718Z,4.10
2023-05-21T18:08:12.158Z,3.70
2023-05-21T18:10:59.127Z,3.20
2023-05-21T18:13:45.694Z,3.83
2023-05-21T18:16:34.201Z,3.97
2023-05-21T18:19:20.816Z,4.27
2023-05-21T18:22:07.718Z,4.00
2023-05-21T18:24:54.443Z,4.30
2023-05-21T18:27:41.138Z,6.47
2023-05-21T18:30:27.808Z,5.20
2023-05-21T18:33:16.959Z,4.13
2023-05-21T18:36:03.666Z,4.07
2023-05-21T18:38:50.961Z,4.10
2023-05-21T18:41:38.281Z,4.30
2023-05-21T18:44:25.156Z,3.70
2023-05-21T18:47:12.870Z,3.97
2023-05-21T18:50:01.230Z,4.10
2023-05-21T18:52:47.752Z,4.13
2023-05-21T18:55:35.801Z,4.00
2023-05-21T18:58:23.787Z,5.23
2023-05-21T19:01:11.182Z,9.53
2023-05-21T19:03:58.095Z,4.50
2023-05-21T19:06:47.208Z,4.30
2023-05-21T19:09:33.880Z,3.97
2023-05-21T19:12:20.929Z,3.80
2023-05-21T19:15:08.954Z,4.60
2023-05-21T19:17:55.518Z,4.20
2023-05-21T19:20:42.430Z,4.77
2023-05-21T19:23:35.869Z,4.03
2023-05-21T19:26:32.475Z,4.10
2023-05-21T19:29:20.381Z,3.93
2023-05-21T19:32:08.263Z,4.30
2023-05-21T19:34:54.723Z,4.30
2023-05-21T19:37:41.496Z,8.07
2023-05-21T19:40:31.157Z,4.50
2023-05-21T19:43:18.050Z,4.80
2023-05-21T19:46:04.833Z,4.73
2023-05-21T19:48:51.878Z,4.43
2023-05-21T19:51:40.529Z,4.07
2023-05-21T19:54:27.833Z,4.67
2023-05-21T19:57:16.590Z,4.20
2023-05-21T20:00:07.266Z,4.10
2023-05-21T20:02:59.517Z,4.00
2023-05-21T20:05:46.852Z,4.10
2023-05-21T20:08:42.068Z,4.07
2023-05-21T20:11:50.881Z,4.23
2023-05-21T20:15:00.727Z,3.87
2023-05-21T20:18:05.968Z,4.27
2023-05-21T20:21:12.444Z,4.30
2023-05-21T20:24:29.813Z,3.97
2023-05-21T20:27:35.556Z,4.30
2023-05-21T20:30:34.970Z,4.23
2023-05-21T20:33:29.884Z,4.40
2023-05-21T20:36:42.174Z,4.13
2023-05-21T20:39:38.808Z,4.40
2023-05-21T20:42:44.244Z,4.30
2023-05-21T20:45:41.318Z,4.43
2023-05-21T20:48:32.830Z,4.40
2023-05-21T20:51:22.731Z,3.77
2023-05-21T20:54:21.167Z,4.17
2023-05-21T20:57:12.206Z,4.23
2023-05-21T21:00:24.886Z,3.73
2023-05-21T21:03:35.799Z,4.60
2023-05-21T21:06:34.364Z,4.23
2023-05-21T21:09:30.597Z,4.60
2023-05-21T21:12:26.992Z,4.30
2023-05-21T21:15:35.497Z,4.10
2023-05-21T21:18:27.586Z,4.47
2023-05-21T21:21:18.804Z,4.53
2023-05-21T21:24:13.153Z,4.70
2023-05-21T21:27:03.019Z,4.10
2023-05-21T21:29:54.827Z,3.97
2023-05-21T21:32:42.360Z,4.47
2023-05-21T21:35:35.068Z,4.30
2023-05-21T21:38:22.439Z,4.10
2023-05-21T21:41:09.377Z,4.30
2023-05-21T21:43:57.459Z,4.03
2023-05-21T21:46:45.404Z,4.53
2023-05-21T21:49:33.285Z,4.63
2023-05-21T21:52:21.972Z,4.30
2023-05-21T21:55:10.253Z,3.93
2023-05-21T21:57:56.952Z,4.40
2023-05-21T22:00:43.701Z,4.00
2023-05-21T22:03:33.261Z,4.57
2023-05-21T22:06:22.884Z,3.63
2023-05-21T22:09:10.974Z,3.93
2023-05-21T22:11:58.855Z,4.00
2023-05-21T22:14:45.733Z,3.90
2023-05-21T22:17:32.826Z,3.83
2023-05-21T22:20:19.746Z,3.33
2023-05-21T22:23:07.088Z,3.33
2023-05-21T22:25:55.865Z,3.60
2023-05-21T22:28:42.578Z,3.80
2023-05-21T22:31:30.107Z,4.07
2023-05-21T22:34:16.770Z,3.40
2023-05-21T22:37:03.506Z,3.83
2023-05-21T22:39:50.218Z,3.30
2023-05-21T22:42:38.686Z,4.00
2023-05-21T22:45:25.039Z,3.43
2023-05-21T22:48:11.872Z,3.47
2023-05-21T22:50:59.163Z,3.13
2023-05-21T22:53:45.568Z,3.53
2023-05-21T22:56:32.307Z,3.63
2023-05-21T22:59:20.421Z,3.10
2023-05-21T23:02:07.823Z,3.60
2023-05-21T23:04:54.587Z,3.30
2023-05-21T23:07:41.505Z,3.30
2023-05-21T23:10:27.971Z,2.97
2023-05-21T23:13:14.958Z,3.60
2023-05-21T23:16:04.512Z,3.30
2023-05-21T23:18:51.140Z,3.37
2023-05-21T23:21:37.998Z,3.33
2023-05-21T23:24:24.924Z,3.40
2023-05-21T23:27:11.609Z,3.67
2023-05-21T23:29:58.327Z,3.70
2023-05-21T23:32:46.570Z,3.77
2023-05-21T23:35:33.378Z,3.50
2023-05-21T23:38:19.998Z,3.63
2023-05-21T23:41:06.999Z,3.40
2023-05-21T23:43:53.702Z,3.43
2023-05-21T23:46:40.461Z,3.43
2023-05-21T23:49:28.848Z,3.37
2023-05-21T23:52:17.365Z,3.67
2023-05-21T23:55:03.899Z,3.40
2023-05-21T23:57:50.915Z,3.43
